Arpin, Wisconsin
Current Conditions -  °F | °C
As of 6:54 AM on Friday 31 Oct 2014 (Local Time) from KMFI Reporting Station
Broken Clouds Broken Clouds  
Wind Chill: 21°   Ceiling: 3300
Heat Index: 31°   Visibility: 10mi
Dew Point: 21°   Wind: 13mph
Humidity: 67%   Direction: 350°N
Pressure: 30.3"   Gusts: 28mph
Location:  44.54°N, 90.04°W
Report Text: KMFI 311154Z AUTO 35011G24KT 10SM BKN033 M01/M06 A3030 RMK AO2 PK WND 36029/1114 SLP272 60000 T10061061 10006 21006 51027
Loading
Personal Weather Stations






























Interactive Weather Map
Tropical Storm Tracking
New forecast layout! Learn more

10-Day Weather Forecast

Advertisements
Track Severe Weather on mobile